sensor_id;sensor_type;location;lat;lon;timestamp;P1;durP1;ratioP1;P2;durP2;ratioP2
28170;SDS011;15458;53.346;-1.688;2023-10-31T00:02:07;3.83;;;2.33;;
28170;SDS011;15458;53.346;-1.688;2023-10-31T00:04:33;3.78;;;2.38;;
28170;SDS011;15458;53.346;-1.688;2023-10-31T00:06:58;2.35;;;2.10;;
28170;SDS011;15458;53.346;-1.688;2023-10-31T00:09:24;5.90;;;2.50;;
28170;SDS011;15458;53.346;-1.688;2023-10-31T00:11:50;3.33;;;2.58;;
28170;SDS011;15458;53.346;-1.688;2023-10-31T00:14:16;3.63;;;2.25;;
28170;SDS011;15458;53.346;-1.688;2023-10-31T00:16:41;2.72;;;2.53;;
28170;SDS011;15458;53.346;-1.688;2023-10-31T00:19:07;2.70;;;2.50;;
28170;SDS011;15458;53.346;-1.688;2023-10-31T00:21:34;6.25;;;2.55;;
28170;SDS011;15458;53.346;-1.688;2023-10-31T00:23:59;5.03;;;3.00;;
28170;SDS011;15458;53.346;-1.688;2023-10-31T00:26:25;4.07;;;2.55;;
28170;SDS011;15458;53.346;-1.688;2023-10-31T00:28:51;6.80;;;2.60;;
28170;SDS011;15458;53.346;-1.688;2023-10-31T00:31:17;5.68;;;2.80;;
28170;SDS011;15458;53.346;-1.688;2023-10-31T00:33:42;3.08;;;2.55;;
28170;SDS011;15458;53.346;-1.688;2023-10-31T00:36:08;2.78;;;2.47;;
28170;SDS011;15458;53.346;-1.688;2023-10-31T00:38:34;4.35;;;2.60;;
28170;SDS011;15458;53.346;-1.688;2023-10-31T00:40:59;3.85;;;3.05;;
28170;SDS011;15458;53.346;-1.688;2023-10-31T00:43:25;3.38;;;2.40;;
28170;SDS011;15458;53.346;-1.688;2023-10-31T00:45:51;3.10;;;2.20;;
28170;SDS011;15458;53.346;-1.688;2023-10-31T00:48:16;5.35;;;2.30;;
28170;SDS011;15458;53.346;-1.688;2023-10-31T00:50:43;3.80;;;2.10;;
28170;SDS011;15458;53.346;-1.688;2023-10-31T00:53:08;2.53;;;2.03;;
28170;SDS011;15458;53.346;-1.688;2023-10-31T00:55:34;3.08;;;1.98;;
28170;SDS011;15458;53.346;-1.688;2023-10-31T00:58:00;2.30;;;2.10;;
28170;SDS011;15458;53.346;-1.688;2023-10-31T01:00:25;5.43;;;2.28;;
28170;SDS011;15458;53.346;-1.688;2023-10-31T01:02:51;2.88;;;2.10;;
28170;SDS011;15458;53.346;-1.688;2023-10-31T01:05:17;4.65;;;1.98;;
28170;SDS011;15458;53.346;-1.688;2023-10-31T01:07:43;1.92;;;1.73;;
28170;SDS011;15458;53.346;-1.688;2023-10-31T01:10:08;2.47;;;1.70;;
28170;SDS011;15458;53.346;-1.688;2023-10-31T01:12:35;1.77;;;1.67;;
28170;SDS011;15458;53.346;-1.688;2023-10-31T01:15:00;1.52;;;1.40;;
28170;SDS011;15458;53.346;-1.688;2023-10-31T01:17:26;1.48;;;1.38;;
28170;SDS011;15458;53.346;-1.688;2023-10-31T01:19:52;1.73;;;1.63;;
28170;SDS011;15458;53.346;-1.688;2023-10-31T01:22:18;1.85;;;1.50;;
28170;SDS011;15458;53.346;-1.688;2023-10-31T01:24:43;1.70;;;1.60;;
28170;SDS011;15458;53.346;-1.688;2023-10-31T01:27:09;2.03;;;1.80;;
28170;SDS011;15458;53.346;-1.688;2023-10-31T01:29:34;1.63;;;1.38;;
28170;SDS011;15458;53.346;-1.688;2023-10-31T01:32:00;1.45;;;1.35;;
28170;SDS011;15458;53.346;-1.688;2023-10-31T01:34:26;1.52;;;1.42;;
28170;SDS011;15458;53.346;-1.688;2023-10-31T01:36:51;1.30;;;1.20;;
28170;SDS011;15458;53.346;-1.688;2023-10-31T01:39:17;2.20;;;1.40;;
28170;SDS011;15458;53.346;-1.688;2023-10-31T01:41:43;2.53;;;1.63;;
28170;SDS011;15458;53.346;-1.688;2023-10-31T01:44:09;1.50;;;1.40;;
28170;SDS011;15458;53.346;-1.688;2023-10-31T01:46:35;1.92;;;1.70;;
28170;SDS011;15458;53.346;-1.688;2023-10-31T01:49:01;1.65;;;1.33;;
28170;SDS011;15458;53.346;-1.688;2023-10-31T01:51:27;2.47;;;1.10;;
28170;SDS011;15458;53.346;-1.688;2023-10-31T01:53:53;2.25;;;1.75;;
28170;SDS011;15458;53.346;-1.688;2023-10-31T01:56:20;1.50;;;1.40;;
28170;SDS011;15458;53.346;-1.688;2023-10-31T01:58:47;1.38;;;1.20;;
28170;SDS011;15458;53.346;-1.688;2023-10-31T02:01:15;1.92;;;1.35;;
28170;SDS011;15458;53.346;-1.688;2023-10-31T02:03:41;2.67;;;1.20;;
28170;SDS011;15458;53.346;-1.688;2023-10-31T02:06:07;1.30;;;1.10;;
28170;SDS011;15458;53.346;-1.688;2023-10-31T02:08:34;1.35;;;1.25;;
28170;SDS011;15458;53.346;-1.688;2023-10-31T02:11:00;1.20;;;1.10;;
28170;SDS011;15458;53.346;-1.688;2023-10-31T02:13:26;1.75;;;0.98;;
28170;SDS011;15458;53.346;-1.688;2023-10-31T02:15:51;1.52;;;1.00;;
28170;SDS011;15458;53.346;-1.688;2023-10-31T02:18:17;1.45;;;1.10;;
28170;SDS011;15458;53.346;-1.688;2023-10-31T02:20:43;0.82;;;0.80;;
28170;SDS011;15458;53.346;-1.688;2023-10-31T02:23:09;1.10;;;0.93;;
28170;SDS011;15458;53.346;-1.688;2023-10-31T02:25:34;0.70;;;0.70;;
28170;SDS011;15458;53.346;-1.688;2023-10-31T02:28:00;1.10;;;0.82;;
28170;SDS011;15458;53.346;-1.688;2023-10-31T02:30:26;1.35;;;0.82;;
28170;SDS011;15458;53.346;-1.688;2023-10-31T02:32:52;1.00;;;0.90;;
28170;SDS011;15458;53.346;-1.688;2023-10-31T02:35:18;0.75;;;0.70;;
28170;SDS011;15458;53.346;-1.688;2023-10-31T02:37:44;1.83;;;0.82;;
28170;SDS011;15458;53.346;-1.688;2023-10-31T02:40:11;1.30;;;0.77;;
28170;SDS011;15458;53.346;-1.688;2023-10-31T02:42:37;1.33;;;1.02;;
28170;SDS011;15458;53.346;-1.688;2023-10-31T02:45:03;1.00;;;0.80;;
28170;SDS011;15458;53.346;-1.688;2023-10-31T02:47:29;1.05;;;0.95;;
28170;SDS011;15458;53.346;-1.688;2023-10-31T02:49:55;0.98;;;0.60;;
28170;SDS011;15458;53.346;-1.688;2023-10-31T02:52:21;1.10;;;1.00;;
28170;SDS011;15458;53.346;-1.688;2023-10-31T02:54:46;1.05;;;0.93;;
28170;SDS011;15458;53.346;-1.688;2023-10-31T02:57:12;1.02;;;0.70;;
28170;SDS011;15458;53.346;-1.688;2023-10-31T02:59:38;1.25;;;0.82;;
28170;SDS011;15458;53.346;-1.688;2023-10-31T03:02:04;1.20;;;0.80;;
28170;SDS011;15458;53.346;-1.688;2023-10-31T03:04:30;1.00;;;0.80;;
28170;SDS011;15458;53.346;-1.688;2023-10-31T03:06:56;1.05;;;0.90;;
28170;SDS011;15458;53.346;-1.688;2023-10-31T03:09:21;1.17;;;1.08;;
28170;SDS011;15458;53.346;-1.688;2023-10-31T03:11:48;1.27;;;0.95;;
28170;SDS011;15458;53.346;-1.688;2023-10-31T03:14:14;0.90;;;0.90;;
28170;SDS011;15458;53.346;-1.688;2023-10-31T03:16:40;1.02;;;0.93;;
28170;SDS011;15458;53.346;-1.688;2023-10-31T03:19:06;1.10;;;0.70;;
28170;SDS011;15458;53.346;-1.688;2023-10-31T03:21:33;2.15;;;0.90;;
28170;SDS011;15458;53.346;-1.688;2023-10-31T03:23:58;1.92;;;1.20;;
28170;SDS011;15458;53.346;-1.688;2023-10-31T03:26:24;1.65;;;1.10;;
28170;SDS011;15458;53.346;-1.688;2023-10-31T03:28:52;1.02;;;0.90;;
28170;SDS011;15458;53.346;-1.688;2023-10-31T03:31:22;4.25;;;0.68;;
28170;SDS011;15458;53.346;-1.688;2023-10-31T03:33:49;1.02;;;0.75;;
28170;SDS011;15458;53.346;-1.688;2023-10-31T03:36:15;0.93;;;0.73;;
28170;SDS011;15458;53.346;-1.688;2023-10-31T03:38:41;1.33;;;0.90;;
28170;SDS011;15458;53.346;-1.688;2023-10-31T03:41:07;0.98;;;0.88;;
28170;SDS011;15458;53.346;-1.688;2023-10-31T03:43:33;1.35;;;0.77;;
28170;SDS011;15458;53.346;-1.688;2023-10-31T03:45:59;0.80;;;0.80;;
28170;SDS011;15458;53.346;-1.688;2023-10-31T03:48:25;1.17;;;0.80;;
28170;SDS011;15458;53.346;-1.688;2023-10-31T03:50:51;1.00;;;0.80;;
28170;SDS011;15458;53.346;-1.688;2023-10-31T03:53:17;0.90;;;0.80;;
28170;SDS011;15458;53.346;-1.688;2023-10-31T03:55:42;0.85;;;0.80;;
28170;SDS011;15458;53.346;-1.688;2023-10-31T03:58:08;1.40;;;1.02;;
28170;SDS011;15458;53.346;-1.688;2023-10-31T04:00:34;2.00;;;1.00;;
28170;SDS011;15458;53.346;-1.688;2023-10-31T04:02:59;1.52;;;0.98;;
28170;SDS011;15458;53.346;-1.688;2023-10-31T04:05:25;1.35;;;0.90;;
28170;SDS011;15458;53.346;-1.688;2023-10-31T04:07:51;2.03;;;1.20;;
28170;SDS011;15458;53.346;-1.688;2023-10-31T04:10:17;1.73;;;1.17;;
28170;SDS011;15458;53.346;-1.688;2023-10-31T04:12:43;1.10;;;0.95;;
28170;SDS011;15458;53.346;-1.688;2023-10-31T04:15:09;3.70;;;1.20;;
28170;SDS011;15458;53.346;-1.688;2023-10-31T04:17:35;1.77;;;1.50;;
28170;SDS011;15458;53.346;-1.688;2023-10-31T04:20:01;2.65;;;1.48;;
28170;SDS011;15458;53.346;-1.688;2023-10-31T04:22:27;1.70;;;1.35;;
28170;SDS011;15458;53.346;-1.688;2023-10-31T04:24:53;1.92;;;1.55;;
28170;SDS011;15458;53.346;-1.688;2023-10-31T04:27:18;1.25;;;1.10;;
28170;SDS011;15458;53.346;-1.688;2023-10-31T04:29:44;1.90;;;1.60;;
28170;SDS011;15458;53.346;-1.688;2023-10-31T04:32:10;1.63;;;1.45;;
28170;SDS011;15458;53.346;-1.688;2023-10-31T04:34:35;1.60;;;1.50;;
28170;SDS011;15458;53.346;-1.688;2023-10-31T04:37:01;1.70;;;1.40;;
28170;SDS011;15458;53.346;-1.688;2023-10-31T04:39:27;3.45;;;1.60;;
28170;SDS011;15458;53.346;-1.688;2023-10-31T04:41:52;4.78;;;2.00;;
28170;SDS011;15458;53.346;-1.688;2023-10-31T04:44:18;2.42;;;1.33;;
28170;SDS011;15458;53.346;-1.688;2023-10-31T04:46:44;2.28;;;1.77;;
28170;SDS011;15458;53.346;-1.688;2023-10-31T04:49:09;2.45;;;1.73;;
28170;SDS011;15458;53.346;-1.688;2023-10-31T04:51:38;2.65;;;1.58;;
28170;SDS011;15458;53.346;-1.688;2023-10-31T04:54:04;1.65;;;1.33;;
28170;SDS011;15458;53.346;-1.688;2023-10-31T04:56:31;1.90;;;1.50;;
28170;SDS011;15458;53.346;-1.688;2023-10-31T04:58:57;2.38;;;1.67;;
28170;SDS011;15458;53.346;-1.688;2023-10-31T05:01:22;4.13;;;1.30;;
28170;SDS011;15458;53.346;-1.688;2023-10-31T05:03:49;2.65;;;1.60;;
28170;SDS011;15458;53.346;-1.688;2023-10-31T05:06:18;2.03;;;1.50;;
28170;SDS011;15458;53.346;-1.688;2023-10-31T05:08:44;1.88;;;1.63;;
28170;SDS011;15458;53.346;-1.688;2023-10-31T05:11:11;1.67;;;1.45;;
28170;SDS011;15458;53.346;-1.688;2023-10-31T05:13:38;1.25;;;1.15;;
28170;SDS011;15458;53.346;-1.688;2023-10-31T05:16:04;2.08;;;1.10;;
28170;SDS011;15458;53.346;-1.688;2023-10-31T05:18:30;1.38;;;1.00;;
28170;SDS011;15458;53.346;-1.688;2023-10-31T05:20:56;1.60;;;1.10;;
28170;SDS011;15458;53.346;-1.688;2023-10-31T05:23:22;1.60;;;1.20;;
28170;SDS011;15458;53.346;-1.688;2023-10-31T05:25:47;1.77;;;1.00;;
28170;SDS011;15458;53.346;-1.688;2023-10-31T05:28:13;2.45;;;1.25;;
28170;SDS011;15458;53.346;-1.688;2023-10-31T05:30:41;1.02;;;0.90;;
28170;SDS011;15458;53.346;-1.688;2023-10-31T05:33:06;5.15;;;1.38;;
28170;SDS011;15458;53.346;-1.688;2023-10-31T05:35:33;1.77;;;1.13;;
28170;SDS011;15458;53.346;-1.688;2023-10-31T05:37:58;2.95;;;1.35;;
28170;SDS011;15458;53.346;-1.688;2023-10-31T05:40:24;2.65;;;0.80;;
28170;SDS011;15458;53.346;-1.688;2023-10-31T05:42:51;1.10;;;1.00;;
28170;SDS011;15458;53.346;-1.688;2023-10-31T05:45:17;1.65;;;1.10;;
28170;SDS011;15458;53.346;-1.688;2023-10-31T05:47:43;2.03;;;0.98;;
28170;SDS011;15458;53.346;-1.688;2023-10-31T05:50:09;0.80;;;0.75;;
28170;SDS011;15458;53.346;-1.688;2023-10-31T05:52:35;0.98;;;0.80;;
28170;SDS011;15458;53.346;-1.688;2023-10-31T05:55:01;1.42;;;0.80;;
28170;SDS011;15458;53.346;-1.688;2023-10-31T05:57:27;0.63;;;0.60;;
28170;SDS011;15458;53.346;-1.688;2023-10-31T05:59:53;0.70;;;0.70;;
28170;SDS011;15458;53.346;-1.688;2023-10-31T06:02:18;0.82;;;0.60;;
28170;SDS011;15458;53.346;-1.688;2023-10-31T06:04:44;0.50;;;0.35;;
28170;SDS011;15458;53.346;-1.688;2023-10-31T06:07:10;1.15;;;0.70;;
28170;SDS011;15458;53.346;-1.688;2023-10-31T06:09:37;0.60;;;0.60;;
28170;SDS011;15458;53.346;-1.688;2023-10-31T06:12:03;0.65;;;0.50;;
28170;SDS011;15458;53.346;-1.688;2023-10-31T06:14:29;0.73;;;0.60;;
28170;SDS011;15458;53.346;-1.688;2023-10-31T06:16:54;0.65;;;0.65;;
28170;SDS011;15458;53.346;-1.688;2023-10-31T06:19:21;1.00;;;0.80;;
28170;SDS011;15458;53.346;-1.688;2023-10-31T06:21:47;0.82;;;0.68;;
28170;SDS011;15458;53.346;-1.688;2023-10-31T06:24:13;1.52;;;0.60;;
28170;SDS011;15458;53.346;-1.688;2023-10-31T06:26:39;1.05;;;0.80;;
28170;SDS011;15458;53.346;-1.688;2023-10-31T06:29:05;0.93;;;0.70;;
28170;SDS011;15458;53.346;-1.688;2023-10-31T06:31:31;2.38;;;0.80;;
28170;SDS011;15458;53.346;-1.688;2023-10-31T06:33:56;0.50;;;0.50;;
28170;SDS011;15458;53.346;-1.688;2023-10-31T06:36:22;0.80;;;0.70;;
28170;SDS011;15458;53.346;-1.688;2023-10-31T06:38:47;1.77;;;0.75;;
28170;SDS011;15458;53.346;-1.688;2023-10-31T06:41:13;0.77;;;0.77;;
28170;SDS011;15458;53.346;-1.688;2023-10-31T06:43:39;0.88;;;0.68;;
28170;SDS011;15458;53.346;-1.688;2023-10-31T06:46:04;1.05;;;0.90;;
28170;SDS011;15458;53.346;-1.688;2023-10-31T06:48:30;0.85;;;0.85;;
28170;SDS011;15458;53.346;-1.688;2023-10-31T06:50:56;0.93;;;0.75;;
28170;SDS011;15458;53.346;-1.688;2023-10-31T06:53:22;1.42;;;1.10;;
28170;SDS011;15458;53.346;-1.688;2023-10-31T06:55:47;1.17;;;1.08;;
28170;SDS011;15458;53.346;-1.688;2023-10-31T06:58:13;1.00;;;0.90;;
28170;SDS011;15458;53.346;-1.688;2023-10-31T07:00:39;1.60;;;1.25;;
28170;SDS011;15458;53.346;-1.688;2023-10-31T07:03:05;1.55;;;1.33;;
28170;SDS011;15458;53.346;-1.688;2023-10-31T07:05:34;1.85;;;1.60;;
28170;SDS011;15458;53.346;-1.688;2023-10-31T07:08:01;1.77;;;1.55;;
28170;SDS011;15458;53.346;-1.688;2023-10-31T07:10:28;2.90;;;1.73;;
28170;SDS011;15458;53.346;-1.688;2023-10-31T07:12:54;2.47;;;1.90;;
28170;SDS011;15458;53.346;-1.688;2023-10-31T07:15:19;2.55;;;1.95;;
28170;SDS011;15458;53.346;-1.688;2023-10-31T07:17:46;2.40;;;1.80;;
28170;SDS011;15458;53.346;-1.688;2023-10-31T07:20:12;3.55;;;2.30;;
28170;SDS011;15458;53.346;-1.688;2023-10-31T07:22:37;3.35;;;2.03;;
28170;SDS011;15458;53.346;-1.688;2023-10-31T07:25:05;4.93;;;3.10;;
28170;SDS011;15458;53.346;-1.688;2023-10-31T07:27:31;2.58;;;2.10;;
28170;SDS011;15458;53.346;-1.688;2023-10-31T07:29:57;3.00;;;2.40;;
28170;SDS011;15458;53.346;-1.688;2023-10-31T07:32:23;3.50;;;2.35;;
28170;SDS011;15458;53.346;-1.688;2023-10-31T07:34:49;4.55;;;3.10;;
28170;SDS011;15458;53.346;-1.688;2023-10-31T07:37:14;4.90;;;3.20;;
28170;SDS011;15458;53.346;-1.688;2023-10-31T07:39:40;2.75;;;2.22;;
28170;SDS011;15458;53.346;-1.688;2023-10-31T07:42:07;3.65;;;2.83;;
28170;SDS011;15458;53.346;-1.688;2023-10-31T07:44:32;2.85;;;2.40;;
28170;SDS011;15458;53.346;-1.688;2023-10-31T07:46:58;5.28;;;3.30;;
28170;SDS011;15458;53.346;-1.688;2023-10-31T07:49:24;7.32;;;3.63;;
28170;SDS011;15458;53.346;-1.688;2023-10-31T07:51:49;5.57;;;3.65;;
28170;SDS011;15458;53.346;-1.688;2023-10-31T07:54:15;5.85;;;3.50;;
28170;SDS011;15458;53.346;-1.688;2023-10-31T07:56:41;5.68;;;3.65;;
28170;SDS011;15458;53.346;-1.688;2023-10-31T07:59:07;6.28;;;3.58;;
28170;SDS011;15458;53.346;-1.688;2023-10-31T08:01:33;6.22;;;3.60;;
28170;SDS011;15458;53.346;-1.688;2023-10-31T08:04:00;5.18;;;3.55;;
28170;SDS011;15458;53.346;-1.688;2023-10-31T08:06:26;6.32;;;3.78;;
28170;SDS011;15458;53.346;-1.688;2023-10-31T08:08:52;6.05;;;3.40;;
28170;SDS011;15458;53.346;-1.688;2023-10-31T08:11:17;6.35;;;3.67;;
28170;SDS011;15458;53.346;-1.688;2023-10-31T08:13:43;5.97;;;3.50;;
28170;SDS011;15458;53.346;-1.688;2023-10-31T08:16:09;12.95;;;7.38;;
28170;SDS011;15458;53.346;-1.688;2023-10-31T08:18:35;10.13;;;4.68;;
28170;SDS011;15458;53.346;-1.688;2023-10-31T08:21:01;6.82;;;3.60;;
28170;SDS011;15458;53.346;-1.688;2023-10-31T08:23:30;6.20;;;3.42;;
28170;SDS011;15458;53.346;-1.688;2023-10-31T08:25:56;5.05;;;3.05;;
28170;SDS011;15458;53.346;-1.688;2023-10-31T08:28:22;7.28;;;4.35;;
28170;SDS011;15458;53.346;-1.688;2023-10-31T08:30:47;8.60;;;3.90;;
28170;SDS011;15458;53.346;-1.688;2023-10-31T08:33:13;9.07;;;5.53;;
28170;SDS011;15458;53.346;-1.688;2023-10-31T08:35:39;7.28;;;4.32;;
28170;SDS011;15458;53.346;-1.688;2023-10-31T08:38:05;6.72;;;4.28;;
28170;SDS011;15458;53.346;-1.688;2023-10-31T08:40:30;4.47;;;3.03;;
28170;SDS011;15458;53.346;-1.688;2023-10-31T08:42:56;5.60;;;3.47;;
28170;SDS011;15458;53.346;-1.688;2023-10-31T08:45:22;5.32;;;3.40;;
28170;SDS011;15458;53.346;-1.688;2023-10-31T08:47:48;5.90;;;3.15;;
28170;SDS011;15458;53.346;-1.688;2023-10-31T08:50:13;6.32;;;3.25;;
28170;SDS011;15458;53.346;-1.688;2023-10-31T08:52:39;6.55;;;3.50;;
28170;SDS011;15458;53.346;-1.688;2023-10-31T08:55:05;5.22;;;3.03;;
28170;SDS011;15458;53.346;-1.688;2023-10-31T08:57:31;7.28;;;3.63;;
28170;SDS011;15458;53.346;-1.688;2023-10-31T08:59:59;6.43;;;3.67;;
28170;SDS011;15458;53.346;-1.688;2023-10-31T09:02:25;6.13;;;3.45;;
28170;SDS011;15458;53.346;-1.688;2023-10-31T09:04:51;6.15;;;3.65;;
28170;SDS011;15458;53.346;-1.688;2023-10-31T09:07:16;10.88;;;5.10;;
28170;SDS011;15458;53.346;-1.688;2023-10-31T09:09:42;9.32;;;3.50;;
28170;SDS011;15458;53.346;-1.688;2023-10-31T09:12:08;6.05;;;3.17;;
28170;SDS011;15458;53.346;-1.688;2023-10-31T09:14:34;6.07;;;3.40;;
28170;SDS011;15458;53.346;-1.688;2023-10-31T09:17:00;7.85;;;4.10;;
28170;SDS011;15458;53.346;-1.688;2023-10-31T09:19:26;7.32;;;3.47;;
28170;SDS011;15458;53.346;-1.688;2023-10-31T09:21:51;6.20;;;3.03;;
28170;SDS011;15458;53.346;-1.688;2023-10-31T09:24:17;4.03;;;2.33;;
28170;SDS011;15458;53.346;-1.688;2023-10-31T09:26:43;7.65;;;3.30;;
28170;SDS011;15458;53.346;-1.688;2023-10-31T09:29:10;6.30;;;2.70;;
28170;SDS011;15458;53.346;-1.688;2023-10-31T09:31:35;3.95;;;2.55;;
28170;SDS011;15458;53.346;-1.688;2023-10-31T09:34:01;5.90;;;2.80;;
28170;SDS011;15458;53.346;-1.688;2023-10-31T09:36:28;5.15;;;2.97;;
28170;SDS011;15458;53.346;-1.688;2023-10-31T09:38:57;5.63;;;3.25;;
28170;SDS011;15458;53.346;-1.688;2023-10-31T09:41:22;5.95;;;2.70;;
28170;SDS011;15458;53.346;-1.688;2023-10-31T09:43:48;4.30;;;2.65;;
28170;SDS011;15458;53.346;-1.688;2023-10-31T09:46:15;4.47;;;2.78;;
28170;SDS011;15458;53.346;-1.688;2023-10-31T09:48:42;8.23;;;4.13;;
28170;SDS011;15458;53.346;-1.688;2023-10-31T09:51:08;6.57;;;4.05;;
28170;SDS011;15458;53.346;-1.688;2023-10-31T09:53:36;7.63;;;3.80;;
28170;SDS011;15458;53.346;-1.688;2023-10-31T09:56:04;6.07;;;3.80;;
28170;SDS011;15458;53.346;-1.688;2023-10-31T09:58:31;7.75;;;3.67;;
28170;SDS011;15458;53.346;-1.688;2023-10-31T10:00:56;6.55;;;3.80;;
28170;SDS011;15458;53.346;-1.688;2023-10-31T10:03:22;5.88;;;3.70;;
28170;SDS011;15458;53.346;-1.688;2023-10-31T10:05:48;8.32;;;4.47;;
28170;SDS011;15458;53.346;-1.688;2023-10-31T10:08:14;7.43;;;3.80;;
28170;SDS011;15458;53.346;-1.688;2023-10-31T10:10:41;6.10;;;3.03;;
28170;SDS011;15458;53.346;-1.688;2023-10-31T10:13:07;7.88;;;3.80;;
28170;SDS011;15458;53.346;-1.688;2023-10-31T10:15:46;5.63;;;3.42;;
28170;SDS011;15458;53.346;-1.688;2023-10-31T10:18:30;5.00;;;2.97;;
28170;SDS011;15458;53.346;-1.688;2023-10-31T10:20:58;4.50;;;2.63;;
28170;SDS011;15458;53.346;-1.688;2023-10-31T10:23:25;4.45;;;2.60;;
28170;SDS011;15458;53.346;-1.688;2023-10-31T10:25:52;4.88;;;3.25;;
28170;SDS011;15458;53.346;-1.688;2023-10-31T10:28:18;6.65;;;3.28;;
28170;SDS011;15458;53.346;-1.688;2023-10-31T10:30:47;6.35;;;3.22;;
28170;SDS011;15458;53.346;-1.688;2023-10-31T10:33:14;6.82;;;3.67;;
28170;SDS011;15458;53.346;-1.688;2023-10-31T10:35:40;5.38;;;3.20;;
28170;SDS011;15458;53.346;-1.688;2023-10-31T10:38:10;5.45;;;3.20;;
28170;SDS011;15458;53.346;-1.688;2023-10-31T10:43:25;3.97;;;2.67;;
28170;SDS011;15458;53.346;-1.688;2023-10-31T10:48:21;5.57;;;2.85;;
28170;SDS011;15458;53.346;-1.688;2023-10-31T10:50:49;4.35;;;2.90;;
28170;SDS011;15458;53.346;-1.688;2023-10-31T10:53:22;5.00;;;2.80;;
28170;SDS011;15458;53.346;-1.688;2023-10-31T10:55:57;3.85;;;2.15;;
28170;SDS011;15458;53.346;-1.688;2023-10-31T10:58:36;3.72;;;2.30;;
28170;SDS011;15458;53.346;-1.688;2023-10-31T11:01:09;4.53;;;2.13;;
28170;SDS011;15458;53.346;-1.688;2023-10-31T11:03:36;3.58;;;2.38;;
28170;SDS011;15458;53.346;-1.688;2023-10-31T11:06:02;5.47;;;2.25;;
28170;SDS011;15458;53.346;-1.688;2023-10-31T11:08:28;5.15;;;2.15;;
28170;SDS011;15458;53.346;-1.688;2023-10-31T11:10:55;7.13;;;2.88;;
28170;SDS011;15458;53.346;-1.688;2023-10-31T11:13:22;5.03;;;2.75;;
28170;SDS011;15458;53.346;-1.688;2023-10-31T11:15:51;5.78;;;2.83;;
28170;SDS011;15458;53.346;-1.688;2023-10-31T11:18:19;5.65;;;3.45;;
28170;SDS011;15458;53.346;-1.688;2023-10-31T11:20:45;4.57;;;2.80;;
28170;SDS011;15458;53.346;-1.688;2023-10-31T11:23:11;3.92;;;2.67;;
28170;SDS011;15458;53.346;-1.688;2023-10-31T11:25:42;6.93;;;3.17;;
28170;SDS011;15458;53.346;-1.688;2023-10-31T11:28:12;5.35;;;2.60;;
28170;SDS011;15458;53.346;-1.688;2023-10-31T11:30:42;5.07;;;2.78;;
28170;SDS011;15458;53.346;-1.688;2023-10-31T11:33:12;4.15;;;2.60;;
28170;SDS011;15458;53.346;-1.688;2023-10-31T11:35:39;4.57;;;2.95;;
28170;SDS011;15458;53.346;-1.688;2023-10-31T11:38:08;6.72;;;2.85;;
28170;SDS011;15458;53.346;-1.688;2023-10-31T11:40:36;4.88;;;3.03;;
28170;SDS011;15458;53.346;-1.688;2023-10-31T11:43:06;4.03;;;2.38;;
28170;SDS011;15458;53.346;-1.688;2023-10-31T11:48:12;5.88;;;3.22;;
28170;SDS011;15458;53.346;-1.688;2023-10-31T11:50:38;6.15;;;3.25;;
28170;SDS011;15458;53.346;-1.688;2023-10-31T11:55:43;5.03;;;3.08;;
28170;SDS011;15458;53.346;-1.688;2023-10-31T11:58:18;4.68;;;2.63;;
28170;SDS011;15458;53.346;-1.688;2023-10-31T12:00:46;3.65;;;2.63;;
28170;SDS011;15458;53.346;-1.688;2023-10-31T12:03:15;3.97;;;2.53;;
28170;SDS011;15458;53.346;-1.688;2023-10-31T12:05:52;4.00;;;2.72;;
28170;SDS011;15458;53.346;-1.688;2023-10-31T12:08:51;3.85;;;2.60;;
28170;SDS011;15458;53.346;-1.688;2023-10-31T12:11:13;5.78;;;2.67;;
28170;SDS011;15458;53.346;-1.688;2023-10-31T12:13:59;3.40;;;2.65;;
28170;SDS011;15458;53.346;-1.688;2023-10-31T12:16:27;3.13;;;2.30;;
28170;SDS011;15458;53.346;-1.688;2023-10-31T12:18:57;3.63;;;2.70;;
28170;SDS011;15458;53.346;-1.688;2023-10-31T12:24:21;3.38;;;2.22;;
28170;SDS011;15458;53.346;-1.688;2023-10-31T12:26:46;3.97;;;2.67;;
28170;SDS011;15458;53.346;-1.688;2023-10-31T12:29:13;6.05;;;2.53;;
28170;SDS011;15458;53.346;-1.688;2023-10-31T12:31:47;5.55;;;2.65;;
28170;SDS011;15458;53.346;-1.688;2023-10-31T12:36:41;3.78;;;2.97;;
28170;SDS011;15458;53.346;-1.688;2023-10-31T12:39:07;5.28;;;2.78;;
28170;SDS011;15458;53.346;-1.688;2023-10-31T12:41:35;5.55;;;3.70;;
28170;SDS011;15458;53.346;-1.688;2023-10-31T12:44:02;5.55;;;3.95;;
28170;SDS011;15458;53.346;-1.688;2023-10-31T12:46:29;4.75;;;3.03;;
28170;SDS011;15458;53.346;-1.688;2023-10-31T12:48:57;7.68;;;3.55;;
28170;SDS011;15458;53.346;-1.688;2023-10-31T12:51:23;5.93;;;3.38;;
28170;SDS011;15458;53.346;-1.688;2023-10-31T12:53:49;4.95;;;2.80;;
28170;SDS011;15458;53.346;-1.688;2023-10-31T12:56:38;5.70;;;4.32;;
28170;SDS011;15458;53.346;-1.688;2023-10-31T12:59:07;5.13;;;3.50;;
28170;SDS011;15458;53.346;-1.688;2023-10-31T13:01:42;4.18;;;3.20;;
28170;SDS011;15458;53.346;-1.688;2023-10-31T13:04:08;5.53;;;3.08;;
28170;SDS011;15458;53.346;-1.688;2023-10-31T13:06:40;7.57;;;4.28;;
28170;SDS011;15458;53.346;-1.688;2023-10-31T13:09:06;5.00;;;3.08;;
28170;SDS011;15458;53.346;-1.688;2023-10-31T13:11:39;5.55;;;3.58;;
28170;SDS011;15458;53.346;-1.688;2023-10-31T13:14:05;5.72;;;3.60;;
28170;SDS011;15458;53.346;-1.688;2023-10-31T13:16:32;7.45;;;3.65;;
28170;SDS011;15458;53.346;-1.688;2023-10-31T13:18:58;5.85;;;3.65;;
28170;SDS011;15458;53.346;-1.688;2023-10-31T13:21:24;5.93;;;4.13;;
28170;SDS011;15458;53.346;-1.688;2023-10-31T13:23:50;8.30;;;4.40;;
28170;SDS011;15458;53.346;-1.688;2023-10-31T13:26:16;9.27;;;5.95;;
28170;SDS011;15458;53.346;-1.688;2023-10-31T13:28:41;11.63;;;7.22;;
28170;SDS011;15458;53.346;-1.688;2023-10-31T13:31:10;8.48;;;5.65;;
28170;SDS011;15458;53.346;-1.688;2023-10-31T13:33:37;7.38;;;4.95;;
28170;SDS011;15458;53.346;-1.688;2023-10-31T13:36:03;5.70;;;3.75;;
28170;SDS011;15458;53.346;-1.688;2023-10-31T13:38:36;4.97;;;3.03;;
28170;SDS011;15458;53.346;-1.688;2023-10-31T13:41:03;4.85;;;3.22;;
28170;SDS011;15458;53.346;-1.688;2023-10-31T13:43:29;6.53;;;3.92;;
28170;SDS011;15458;53.346;-1.688;2023-10-31T13:45:54;7.65;;;4.30;;
28170;SDS011;15458;53.346;-1.688;2023-10-31T13:48:23;5.97;;;3.63;;
28170;SDS011;15458;53.346;-1.688;2023-10-31T13:50:48;8.45;;;4.50;;
28170;SDS011;15458;53.346;-1.688;2023-10-31T13:53:15;5.70;;;3.80;;
28170;SDS011;15458;53.346;-1.688;2023-10-31T13:55:41;5.65;;;4.03;;
28170;SDS011;15458;53.346;-1.688;2023-10-31T13:58:07;5.57;;;4.03;;
28170;SDS011;15458;53.346;-1.688;2023-10-31T14:00:36;7.28;;;4.95;;
28170;SDS011;15458;53.346;-1.688;2023-10-31T14:03:02;7.47;;;4.70;;
28170;SDS011;15458;53.346;-1.688;2023-10-31T14:05:28;5.10;;;3.70;;
28170;SDS011;15458;53.346;-1.688;2023-10-31T14:07:53;6.30;;;3.47;;
28170;SDS011;15458;53.346;-1.688;2023-10-31T14:10:19;4.43;;;3.10;;
28170;SDS011;15458;53.346;-1.688;2023-10-31T14:12:48;6.25;;;3.13;;
28170;SDS011;15458;53.346;-1.688;2023-10-31T14:15:13;5.93;;;2.90;;
28170;SDS011;15458;53.346;-1.688;2023-10-31T14:17:39;5.25;;;3.30;;
28170;SDS011;15458;53.346;-1.688;2023-10-31T14:20:05;5.85;;;3.40;;
28170;SDS011;15458;53.346;-1.688;2023-10-31T14:22:31;4.82;;;3.00;;
28170;SDS011;15458;53.346;-1.688;2023-10-31T14:24:57;5.07;;;3.75;;
28170;SDS011;15458;53.346;-1.688;2023-10-31T14:27:22;7.97;;;4.13;;
28170;SDS011;15458;53.346;-1.688;2023-10-31T14:29:48;6.30;;;3.63;;
28170;SDS011;15458;53.346;-1.688;2023-10-31T14:32:14;4.50;;;2.95;;
28170;SDS011;15458;53.346;-1.688;2023-10-31T14:34:39;5.00;;;3.33;;
28170;SDS011;15458;53.346;-1.688;2023-10-31T14:37:05;4.32;;;3.15;;
28170;SDS011;15458;53.346;-1.688;2023-10-31T14:39:31;5.32;;;2.90;;
28170;SDS011;15458;53.346;-1.688;2023-10-31T14:41:57;5.03;;;2.97;;
28170;SDS011;15458;53.346;-1.688;2023-10-31T14:44:22;5.93;;;4.20;;
28170;SDS011;15458;53.346;-1.688;2023-10-31T14:46:48;4.30;;;2.92;;